createdAt,value
2018-05-10T00:00:24.020Z,0.00
2018-05-10T00:01:24.205Z,0.00
2018-05-10T00:02:24.377Z,0.00
2018-05-10T00:03:24.527Z,0.00
2018-05-10T00:04:24.715Z,0.00
2018-05-10T00:05:24.913Z,0.00
2018-05-10T00:06:25.048Z,0.00
2018-05-10T00:07:25.237Z,0.00
2018-05-10T00:08:25.406Z,0.00
2018-05-10T00:09:25.855Z,0.00
2018-05-10T00:10:25.767Z,0.00
2018-05-10T00:11:25.917Z,0.00
2018-05-10T00:12:26.090Z,0.00
2018-05-10T00:13:26.260Z,0.00
2018-05-10T00:14:26.448Z,0.00
2018-05-10T00:15:26.639Z,0.00
2018-05-10T00:16:26.797Z,0.00
2018-05-10T00:17:26.971Z,0.00
2018-05-10T00:18:27.129Z,0.00
2018-05-10T00:19:27.298Z,0.00
2018-05-10T00:20:27.461Z,0.00
2018-05-10T00:21:27.661Z,0.00
2018-05-10T00:22:27.808Z,0.00
2018-05-10T00:23:27.999Z,0.00
2018-05-10T00:24:28.147Z,0.00
2018-05-10T00:25:28.331Z,0.00
2018-05-10T00:26:28.485Z,0.00
2018-05-10T00:27:28.656Z,0.00
2018-05-10T00:28:28.832Z,0.00
2018-05-10T00:29:29.017Z,0.00
2018-05-10T00:30:29.190Z,0.00
2018-05-10T00:31:29.375Z,0.00
2018-05-10T00:32:29.634Z,0.00
2018-05-10T00:33:29.698Z,0.00
2018-05-10T00:34:29.866Z,0.00
2018-05-10T00:35:30.041Z,0.00
2018-05-10T00:36:30.227Z,0.00
2018-05-10T00:37:30.397Z,0.00
2018-05-10T00:38:30.551Z,0.00
2018-05-10T00:39:30.721Z,0.00
2018-05-10T00:40:30.899Z,0.00
2018-05-10T00:41:31.078Z,0.00
2018-05-10T00:42:31.602Z,0.00
2018-05-10T00:43:31.465Z,0.00
2018-05-10T00:44:31.654Z,0.00
2018-05-10T00:45:31.809Z,0.00
2018-05-10T00:46:32.048Z,0.00
2018-05-10T00:47:32.194Z,0.00
2018-05-10T00:48:32.350Z,0.00
2018-05-10T00:49:32.502Z,0.00
2018-05-10T00:50:32.691Z,0.00
2018-05-10T00:51:32.856Z,0.00
2018-05-10T00:52:33.025Z,0.00
2018-05-10T00:53:33.182Z,0.00
2018-05-10T00:54:33.363Z,0.00
2018-05-10T00:55:33.560Z,0.00
2018-05-10T00:56:33.731Z,0.00
2018-05-10T00:57:33.869Z,0.00
2018-05-10T00:58:34.030Z,0.00
2018-05-10T00:59:34.247Z,0.00
2018-05-10T01:00:34.390Z,0.00
2018-05-10T01:01:34.559Z,0.00
2018-05-10T01:02:34.730Z,0.00
2018-05-10T01:03:34.933Z,0.00
2018-05-10T01:04:35.084Z,0.00
2018-05-10T01:05:35.251Z,0.00
2018-05-10T01:06:35.429Z,0.00
2018-05-10T01:07:35.594Z,0.00
2018-05-10T01:08:35.791Z,0.00
2018-05-10T01:09:35.998Z,0.00
2018-05-10T01:10:36.166Z,0.00
2018-05-10T01:11:36.361Z,0.00
2018-05-10T01:12:36.525Z,0.00
2018-05-10T01:13:36.715Z,0.00
2018-05-10T01:14:36.849Z,0.00
2018-05-10T01:15:37.033Z,0.00
2018-05-10T01:16:37.222Z,0.00
2018-05-10T01:17:37.349Z,0.00
2018-05-10T01:18:37.508Z,0.00
2018-05-10T01:19:37.688Z,0.00
2018-05-10T01:20:37.876Z,0.00
2018-05-10T01:21:38.100Z,0.00
2018-05-10T01:22:38.279Z,0.00
2018-05-10T01:23:38.400Z,0.00
2018-05-10T01:24:38.578Z,0.00
2018-05-10T01:25:38.769Z,0.00
2018-05-10T01:26:38.916Z,0.00
2018-05-10T01:27:39.134Z,0.00
2018-05-10T01:28:39.323Z,0.00
2018-05-10T01:29:39.463Z,0.00
2018-05-10T01:30:39.670Z,0.00
2018-05-10T01:31:39.822Z,0.00
2018-05-10T01:32:40.003Z,0.00
2018-05-10T01:33:40.190Z,0.00
2018-05-10T01:34:40.355Z,0.00
2018-05-10T01:35:40.525Z,0.00
2018-05-10T01:36:40.679Z,0.00
2018-05-10T01:37:40.865Z,0.00
2018-05-10T01:38:41.030Z,0.00
2018-05-10T01:39:41.242Z,0.00
2018-05-10T01:40:41.409Z,0.00
2018-05-10T01:41:41.578Z,0.00
2018-05-10T01:42:41.723Z,0.00
2018-05-10T01:43:41.888Z,0.00
2018-05-10T01:44:42.064Z,0.00
2018-05-10T01:45:42.277Z,0.00
2018-05-10T01:46:42.442Z,0.00
2018-05-10T01:47:42.601Z,0.00
2018-05-10T01:48:42.770Z,0.00
2018-05-10T01:49:42.952Z,0.00
2018-05-10T01:50:43.120Z,0.00
2018-05-10T01:51:43.275Z,0.00
2018-05-10T01:52:43.457Z,0.00
2018-05-10T01:53:43.639Z,0.00
2018-05-10T01:54:43.818Z,0.00
2018-05-10T01:55:43.985Z,0.00
2018-05-10T01:56:44.165Z,0.00
2018-05-10T01:57:44.372Z,0.00
2018-05-10T01:58:44.515Z,0.00
2018-05-10T01:59:44.686Z,0.00
2018-05-10T02:00:44.866Z,0.00
2018-05-10T02:01:45.084Z,0.00
2018-05-10T02:02:45.222Z,0.00
2018-05-10T02:03:45.375Z,0.00
2018-05-10T02:04:45.549Z,0.00
2018-05-10T02:05:45.690Z,0.00
2018-05-10T02:06:45.871Z,0.00
2018-05-10T02:07:46.033Z,0.00
2018-05-10T02:08:46.223Z,0.00
2018-05-10T02:09:46.418Z,0.00
2018-05-10T02:10:46.546Z,0.00
2018-05-10T02:11:46.728Z,0.00
2018-05-10T02:12:46.896Z,0.00
2018-05-10T02:13:47.090Z,0.00
2018-05-10T02:14:47.350Z,0.00
2018-05-10T02:15:47.430Z,0.00
2018-05-10T02:16:47.607Z,0.00
2018-05-10T02:17:47.786Z,0.00
2018-05-10T02:18:47.971Z,0.00
2018-05-10T02:19:48.138Z,0.00
2018-05-10T02:20:48.288Z,0.00
2018-05-10T02:21:48.482Z,0.00
2018-05-10T02:22:48.675Z,0.00
2018-05-10T02:23:48.864Z,0.00
2018-05-10T02:24:48.996Z,0.00
2018-05-10T02:25:49.196Z,0.00
2018-05-10T02:26:49.328Z,0.00
2018-05-10T02:27:49.507Z,0.00
2018-05-10T02:28:49.673Z,0.00
2018-05-10T02:29:49.879Z,0.00
2018-05-10T02:30:50.005Z,0.00
2018-05-10T02:31:50.192Z,0.00
2018-05-10T02:32:50.358Z,0.00
2018-05-10T02:33:50.518Z,0.00
2018-05-10T02:34:50.717Z,0.00
2018-05-10T02:35:50.948Z,0.00
2018-05-10T02:36:51.044Z,0.00
2018-05-10T02:37:51.197Z,0.00
2018-05-10T02:38:51.376Z,0.00
2018-05-10T02:39:51.547Z,0.00
2018-05-10T02:40:51.789Z,0.00
2018-05-10T02:41:51.894Z,0.00
2018-05-10T02:42:52.067Z,0.00
2018-05-10T02:43:52.221Z,0.00
2018-05-10T02:44:52.453Z,0.00
2018-05-10T02:45:52.564Z,0.00
2018-05-10T02:46:52.736Z,0.00
2018-05-10T02:47:52.935Z,0.00
2018-05-10T02:48:53.193Z,0.00
2018-05-10T02:49:53.269Z,0.00
2018-05-10T02:50:53.418Z,0.00
2018-05-10T02:51:53.856Z,0.00
2018-05-10T02:52:53.790Z,0.00
2018-05-10T02:53:53.962Z,0.00
2018-05-10T02:54:54.149Z,0.00
2018-05-10T02:55:54.343Z,0.00
2018-05-10T02:56:54.494Z,0.00
2018-05-10T02:57:54.639Z,0.00
2018-05-10T02:58:54.853Z,0.00
2018-05-10T02:59:54.998Z,0.00
2018-05-10T03:00:55.161Z,0.00
2018-05-10T03:01:55.347Z,0.00
2018-05-10T03:02:55.520Z,0.00
2018-05-10T03:03:55.674Z,0.00
2018-05-10T03:04:55.852Z,0.00
2018-05-10T03:05:56.060Z,0.00
2018-05-10T03:06:56.209Z,0.00
2018-05-10T03:07:56.382Z,4.00
2018-05-10T03:08:56.551Z,0.00
2018-05-10T03:09:56.731Z,4.00
2018-05-10T03:10:56.897Z,4.00
2018-05-10T03:11:57.068Z,4.00
2018-05-10T03:12:57.243Z,8.00
2018-05-10T03:13:57.413Z,8.00
2018-05-10T03:14:57.644Z,8.00
2018-05-10T03:15:57.752Z,8.00
2018-05-10T03:16:57.958Z,8.00
2018-05-10T03:17:58.098Z,8.00
2018-05-10T03:18:58.279Z,12.00
2018-05-10T03:19:58.504Z,8.00
2018-05-10T03:20:58.611Z,12.00
2018-05-10T03:21:58.790Z,12.00
2018-05-10T03:22:58.963Z,16.00
2018-05-10T03:23:59.128Z,16.00
2018-05-10T03:24:59.316Z,20.00
2018-05-10T03:25:59.507Z,20.00
2018-05-10T03:26:59.638Z,16.00
2018-05-10T03:27:59.865Z,20.00
2018-05-10T03:28:59.991Z,20.00
2018-05-10T03:30:00.163Z,20.00
2018-05-10T03:31:00.350Z,20.00
2018-05-10T03:32:00.511Z,24.00
2018-05-10T03:33:00.654Z,28.00
2018-05-10T03:34:00.838Z,36.00
2018-05-10T03:35:01.009Z,36.00
2018-05-10T03:36:01.181Z,40.00
2018-05-10T03:37:01.360Z,44.00
2018-05-10T03:39:01.702Z,52.00
2018-05-10T03:40:01.900Z,56.00
2018-05-10T03:41:02.025Z,60.00
2018-05-10T03:42:02.200Z,64.00
2018-05-10T03:43:02.365Z,64.00
2018-05-10T03:44:02.526Z,72.00
2018-05-10T03:45:02.709Z,76.00
2018-05-10T03:46:02.899Z,80.00
2018-05-10T03:47:03.044Z,84.00
2018-05-10T03:48:03.208Z,96.00
2018-05-10T03:49:03.398Z,104.00
2018-05-10T03:50:03.549Z,100.00
2018-05-10T03:52:03.916Z,116.00
2018-05-10T03:53:04.084Z,124.00
2018-05-10T03:54:04.261Z,136.00
2018-05-10T03:55:04.423Z,144.00
2018-05-10T03:56:04.616Z,152.00
2018-05-10T03:57:04.759Z,164.00
2018-05-10T03:58:04.964Z,176.00
2018-05-10T03:59:05.160Z,176.00
2018-05-10T04:00:05.323Z,188.00
2018-05-10T04:01:05.503Z,196.00
2018-05-10T04:02:05.669Z,204.00
2018-05-10T04:03:05.863Z,216.00
2018-05-10T04:04:06.026Z,224.00
2018-05-10T04:05:06.240Z,232.00
2018-05-10T04:06:06.387Z,240.00
2018-05-10T04:07:06.539Z,256.00
2018-05-10T04:08:06.677Z,268.00
2018-05-10T04:09:06.855Z,272.00
2018-05-10T04:10:07.028Z,280.00
2018-05-10T04:11:07.208Z,288.00
2018-05-10T04:12:07.392Z,292.00
2018-05-10T04:13:07.561Z,304.00
2018-05-10T04:14:07.731Z,316.00
2018-05-10T04:15:07.939Z,332.00
2018-05-10T04:16:08.093Z,340.00
2018-05-10T04:17:08.330Z,348.00
2018-05-10T04:18:08.466Z,372.00
2018-05-10T04:19:08.649Z,392.00
2018-05-10T04:20:08.842Z,428.00
2018-05-10T04:21:09.025Z,452.00
2018-05-10T04:22:09.155Z,476.00
2018-05-10T04:23:09.370Z,520.00
2018-05-10T04:24:09.563Z,572.00
2018-05-10T04:25:09.730Z,600.00
2018-05-10T04:26:09.931Z,612.00
2018-05-10T04:27:10.067Z,676.00
2018-05-10T04:28:10.271Z,676.00
2018-05-10T04:29:10.692Z,696.00
2018-05-10T04:30:10.593Z,724.00
2018-05-10T04:31:10.781Z,728.00
2018-05-10T04:32:10.973Z,728.00
2018-05-10T04:33:11.161Z,748.00
2018-05-10T04:34:11.350Z,752.00
2018-05-10T04:35:11.506Z,784.00
2018-05-10T04:36:11.687Z,820.00
2018-05-10T04:37:11.854Z,816.00
2018-05-10T04:38:12.269Z,820.00
2018-05-10T04:39:12.221Z,816.00
2018-05-10T04:40:12.397Z,848.00
2018-05-10T04:41:12.565Z,836.00
2018-05-10T04:42:12.828Z,828.00
2018-05-10T04:43:12.944Z,820.00
2018-05-10T04:44:13.083Z,864.00
2018-05-10T04:45:13.245Z,880.00
2018-05-10T04:46:13.444Z,916.00
2018-05-10T04:47:13.592Z,900.00
2018-05-10T04:48:13.771Z,948.00
2018-05-10T04:49:13.932Z,1032.00
2018-05-10T04:50:14.130Z,1208.00
2018-05-10T04:51:14.270Z,1284.00
2018-05-10T04:52:15.260Z,1352.00
2018-05-10T04:53:14.595Z,1492.00
2018-05-10T04:54:14.775Z,1612.00
2018-05-10T04:55:14.973Z,2020.00
2018-05-10T04:56:15.150Z,2440.00
2018-05-10T04:57:15.320Z,2380.00
2018-05-10T04:58:15.777Z,2504.00
2018-05-10T04:59:15.707Z,2544.00
2018-05-10T05:00:15.842Z,2728.00
2018-05-10T05:01:16.008Z,3412.00
2018-05-10T05:02:16.208Z,4308.00
2018-05-10T05:03:16.368Z,5388.00
2018-05-10T05:04:16.547Z,7544.00
2018-05-10T05:05:16.717Z,12008.00
2018-05-10T05:06:16.880Z,17056.00
2018-05-10T05:07:17.059Z,20832.00
2018-05-10T05:08:17.223Z,20640.00
2018-05-10T05:09:17.427Z,27552.00
2018-05-10T05:10:17.614Z,34912.00
2018-05-10T05:11:17.999Z,30656.00
2018-05-10T05:12:17.919Z,30304.00
2018-05-10T05:13:18.105Z,32832.00
2018-05-10T05:14:18.280Z,34048.00
2018-05-10T05:15:18.504Z,36832.00
2018-05-10T05:16:18.631Z,37056.00
2018-05-10T05:17:18.837Z,35840.00
2018-05-10T05:18:18.984Z,34976.00
2018-05-10T05:19:19.170Z,36288.00
2018-05-10T05:20:19.367Z,37152.00
2018-05-10T05:22:19.703Z,34624.00
2018-05-10T05:23:19.870Z,35648.00
2018-05-10T05:24:20.068Z,35584.00
2018-05-10T05:25:20.247Z,38368.00
2018-05-10T05:26:20.442Z,39936.00
2018-05-10T05:27:20.582Z,40928.00
2018-05-10T05:28:20.761Z,41856.00
2018-05-10T05:29:20.934Z,42176.00
2018-05-10T05:30:21.125Z,42880.00
2018-05-10T05:31:21.313Z,42048.00
2018-05-10T05:32:21.471Z,41024.00
2018-05-10T05:33:21.627Z,41568.00
2018-05-10T05:34:21.831Z,42304.00
2018-05-10T05:35:22.018Z,42368.00
2018-05-10T05:36:22.145Z,40288.00
2018-05-10T05:37:22.316Z,39168.00
2018-05-10T05:38:22.506Z,39360.00
2018-05-10T05:39:22.756Z,42144.00
2018-05-10T05:40:22.852Z,44928.00
2018-05-10T05:41:23.136Z,46080.00
2018-05-10T05:42:23.230Z,45696.00
2018-05-10T05:43:23.419Z,46144.00
2018-05-10T05:44:23.588Z,45152.00
2018-05-10T05:45:23.748Z,43200.00
2018-05-10T05:46:23.966Z,42016.00
2018-05-10T05:47:24.120Z,42176.00
2018-05-10T05:48:24.326Z,44448.00
2018-05-10T05:49:24.490Z,45056.00
2018-05-10T05:50:24.663Z,43296.00
2018-05-10T05:51:24.866Z,39584.00
2018-05-10T05:52:25.040Z,37728.00
2018-05-10T05:53:25.235Z,40960.00
2018-05-10T05:54:25.405Z,46816.00
2018-05-10T05:55:25.584Z,50528.00
2018-05-10T05:56:25.770Z,48992.00
2018-05-10T05:57:25.953Z,46432.00
2018-05-10T05:58:26.168Z,45024.00
2018-05-10T05:59:26.366Z,45856.00
2018-05-10T06:00:26.563Z,47936.00
2018-05-10T06:01:26.759Z,48160.00
2018-05-10T06:02:26.919Z,47456.00
2018-05-10T06:03:27.097Z,46560.00
2018-05-10T06:04:27.278Z,31232.00
2018-05-10T06:06:27.643Z,23136.00
2018-05-10T06:07:27.823Z,13060.00
2018-05-10T06:08:28.030Z,11272.00
2018-05-10T06:09:28.147Z,9528.00
2018-05-10T06:10:28.357Z,10784.00
2018-05-10T06:11:28.523Z,12864.00
2018-05-10T06:12:28.707Z,12672.00
2018-05-10T06:13:28.873Z,15392.00
2018-05-10T06:14:29.060Z,35232.00
2018-05-10T06:15:29.311Z,34400.00
2018-05-10T06:16:29.377Z,40192.00
2018-05-10T06:17:29.588Z,44480.00
2018-05-10T06:18:29.741Z,34528.00
2018-05-10T06:19:29.930Z,34400.00
2018-05-10T06:20:30.112Z,36128.00
2018-05-10T06:21:30.274Z,27424.00
2018-05-10T06:22:30.450Z,19040.00
2018-05-10T06:23:30.629Z,19648.00
2018-05-10T06:24:30.834Z,18784.00
2018-05-10T06:25:30.973Z,16576.00
2018-05-10T06:26:31.160Z,22464.00
2018-05-10T06:27:31.355Z,35904.00
2018-05-10T06:28:31.525Z,16832.00
2018-05-10T06:29:31.702Z,14144.00
2018-05-10T06:30:31.884Z,19904.00
2018-05-10T06:31:32.050Z,24896.00
2018-05-10T06:32:32.228Z,15968.00
2018-05-10T06:33:32.442Z,13684.00
2018-05-10T06:34:32.589Z,10432.00
2018-05-10T06:35:32.745Z,9540.00
2018-05-10T06:36:33.256Z,9520.00
2018-05-10T06:37:33.085Z,8672.00
2018-05-10T06:38:33.275Z,8092.00
2018-05-10T06:39:33.470Z,7872.00
2018-05-10T06:40:33.699Z,7496.00
2018-05-10T06:41:33.962Z,6508.00
2018-05-10T06:42:34.004Z,6216.00
2018-05-10T06:43:34.171Z,6396.00
2018-05-10T06:44:34.351Z,5904.00
2018-05-10T06:45:34.551Z,5788.00
2018-05-10T06:46:34.726Z,6388.00
2018-05-10T06:47:34.917Z,6496.00
2018-05-10T06:48:35.104Z,14872.00
2018-05-10T06:49:35.293Z,9460.00
2018-05-10T06:50:35.441Z,8816.00
2018-05-10T06:51:35.627Z,9304.00
2018-05-10T06:52:35.794Z,9136.00
2018-05-10T06:53:35.951Z,7732.00
2018-05-10T06:54:36.190Z,15520.00
2018-05-10T06:55:36.302Z,15192.00
2018-05-10T06:56:36.482Z,10784.00
2018-05-10T06:57:36.701Z,12892.00
2018-05-10T06:58:36.838Z,15584.00
2018-05-10T06:59:36.997Z,23264.00
2018-05-10T07:00:37.166Z,11628.00
2018-05-10T07:01:37.320Z,11096.00
2018-05-10T07:02:37.505Z,15520.00
2018-05-10T07:03:37.682Z,18784.00
2018-05-10T07:04:37.854Z,24672.00
2018-05-10T07:05:38.035Z,20000.00
2018-05-10T07:06:38.215Z,20352.00
2018-05-10T07:07:38.390Z,16672.00
2018-05-10T07:08:38.536Z,17472.00
2018-05-10T07:09:38.895Z,27968.00
2018-05-10T07:10:38.914Z,31392.00
2018-05-10T07:11:39.084Z,15192.00
2018-05-10T07:12:39.228Z,18368.00
2018-05-10T07:13:39.425Z,27552.00
2018-05-10T07:14:39.621Z,23456.00
2018-05-10T07:15:39.770Z,27328.00
2018-05-10T07:16:39.937Z,26432.00
2018-05-10T07:17:40.123Z,29472.00
2018-05-10T07:18:40.293Z,30432.00
2018-05-10T07:19:40.484Z,29632.00
2018-05-10T07:20:40.673Z,28736.00
2018-05-10T07:21:40.865Z,26976.00
2018-05-10T07:22:41.033Z,27328.00
2018-05-10T07:23:41.268Z,28128.00
2018-05-10T07:24:41.388Z,28416.00
2018-05-10T07:25:41.569Z,28384.00
2018-05-10T07:26:41.777Z,27584.00
2018-05-10T07:27:41.899Z,25728.00
2018-05-10T07:28:42.074Z,24864.00
2018-05-10T07:29:42.245Z,24544.00
2018-05-10T07:30:42.455Z,23936.00
2018-05-10T07:31:42.581Z,23360.00
2018-05-10T07:32:42.761Z,22560.00
2018-05-10T07:33:42.944Z,21696.00
2018-05-10T07:34:43.132Z,21216.00
2018-05-10T07:35:43.302Z,22112.00
2018-05-10T07:36:43.475Z,21600.00
2018-05-10T07:37:43.686Z,19904.00
2018-05-10T07:38:43.839Z,19488.00
2018-05-10T07:39:44.011Z,19744.00
2018-05-10T07:40:44.200Z,20416.00
2018-05-10T07:41:44.380Z,20864.00
2018-05-10T07:42:44.548Z,21792.00
2018-05-10T07:43:44.716Z,21664.00
2018-05-10T07:44:44.901Z,20864.00
2018-05-10T07:45:45.109Z,20160.00
2018-05-10T07:46:45.282Z,20320.00
2018-05-10T07:47:45.454Z,20032.00
2018-05-10T07:48:45.647Z,19744.00
2018-05-10T07:49:45.804Z,19680.00
2018-05-10T07:50:45.981Z,19488.00
2018-05-10T07:51:46.178Z,19072.00
2018-05-10T07:52:47.336Z,18592.00
2018-05-10T07:53:46.530Z,17792.00
2018-05-10T07:54:46.683Z,17408.00
2018-05-10T07:55:46.902Z,17152.00
2018-05-10T07:56:47.052Z,16800.00
2018-05-10T07:57:47.211Z,16384.00
2018-05-10T07:58:47.403Z,16224.00
2018-05-10T07:59:47.568Z,16032.00
2018-05-10T08:00:47.734Z,15616.00
2018-05-10T08:01:47.939Z,15360.00
2018-05-10T08:02:48.143Z,15264.00
2018-05-10T08:03:48.343Z,15200.00
2018-05-10T08:04:48.490Z,14848.00
2018-05-10T08:05:48.703Z,14424.00
2018-05-10T08:06:48.884Z,14320.00
2018-05-10T08:07:49.035Z,14088.00
2018-05-10T08:08:49.198Z,13960.00
2018-05-10T08:10:49.576Z,13672.00
2018-05-10T08:11:49.744Z,13192.00
2018-05-10T08:12:49.895Z,12824.00
2018-05-10T08:13:50.072Z,12500.00
2018-05-10T08:14:50.259Z,12340.00
2018-05-10T08:15:50.410Z,12104.00
2018-05-10T08:16:50.598Z,12000.00
2018-05-10T08:17:50.794Z,11992.00
2018-05-10T08:18:50.936Z,11916.00
2018-05-10T08:19:51.445Z,11576.00
2018-05-10T08:20:51.370Z,11296.00
2018-05-10T08:21:51.583Z,11260.00
2018-05-10T08:22:51.741Z,11232.00
2018-05-10T08:23:51.910Z,11216.00
2018-05-10T08:24:52.071Z,11148.00
2018-05-10T08:25:52.260Z,11184.00
2018-05-10T08:26:52.438Z,11232.00
2018-05-10T08:27:52.607Z,11256.00
2018-05-10T08:28:52.799Z,11324.00
2018-05-10T08:29:52.949Z,11360.00
2018-05-10T08:30:53.120Z,11380.00
2018-05-10T08:31:53.307Z,11224.00
2018-05-10T08:32:53.467Z,11196.00
2018-05-10T08:33:53.653Z,11248.00
2018-05-10T08:34:53.858Z,9772.00
2018-05-10T08:35:53.980Z,11284.00
2018-05-10T08:36:54.174Z,11284.00
2018-05-10T08:37:54.390Z,8712.00
2018-05-10T08:38:54.534Z,6920.00
2018-05-10T08:39:54.693Z,7104.00
2018-05-10T08:40:54.864Z,8884.00
2018-05-10T08:41:55.103Z,7524.00
2018-05-10T08:42:55.220Z,10044.00
2018-05-10T08:43:55.416Z,10788.00
2018-05-10T08:44:55.608Z,6092.00
2018-05-10T08:45:55.794Z,6616.00
2018-05-10T08:46:55.955Z,6648.00
2018-05-10T08:47:56.162Z,9608.00
2018-05-10T08:48:56.313Z,8728.00
2018-05-10T08:49:56.538Z,6616.00
2018-05-10T08:50:56.961Z,8004.00
2018-05-10T08:51:56.992Z,6212.00
2018-05-10T08:52:57.022Z,8992.00
2018-05-10T08:53:57.219Z,7912.00
2018-05-10T08:54:57.393Z,8828.00
2018-05-10T08:55:57.602Z,10328.00
2018-05-10T08:57:57.968Z,10224.00
2018-05-10T08:58:58.182Z,10128.00
2018-05-10T08:59:58.413Z,10036.00
2018-05-10T09:00:58.530Z,10004.00
2018-05-10T09:01:58.739Z,9960.00
2018-05-10T09:02:58.893Z,9992.00
2018-05-10T09:03:59.071Z,9936.00
2018-05-10T09:04:59.248Z,9900.00
2018-05-10T09:05:59.443Z,9916.00
2018-05-10T09:06:59.589Z,9892.00
2018-05-10T09:07:59.850Z,9904.00
2018-05-10T09:09:00.031Z,9952.00
2018-05-10T09:10:00.209Z,9984.00
2018-05-10T09:11:00.390Z,10004.00
2018-05-10T09:12:00.583Z,9992.00
2018-05-10T09:13:00.786Z,10048.00
2018-05-10T09:14:00.953Z,10056.00
2018-05-10T09:15:01.127Z,10052.00
2018-05-10T09:16:01.294Z,9980.00
2018-05-10T09:17:01.490Z,9976.00
2018-05-10T09:18:01.972Z,10252.00
2018-05-10T09:19:01.815Z,10328.00
2018-05-10T09:20:01.985Z,10164.00
2018-05-10T09:21:02.193Z,10012.00
2018-05-10T09:22:02.396Z,9920.00
2018-05-10T09:23:02.586Z,10052.00
2018-05-10T09:24:02.899Z,10444.00
2018-05-10T09:25:02.908Z,10812.00
2018-05-10T09:26:03.152Z,10600.00
2018-05-10T09:27:03.307Z,10268.00
2018-05-10T09:28:03.733Z,10340.00
2018-05-10T09:29:03.659Z,10352.00
2018-05-10T09:30:03.860Z,10308.00
2018-05-10T09:31:04.045Z,10668.00
2018-05-10T09:32:04.249Z,10920.00
2018-05-10T09:33:04.425Z,10608.00
2018-05-10T09:34:04.696Z,10048.00
2018-05-10T09:35:04.808Z,9816.00
2018-05-10T09:36:04.971Z,9724.00
2018-05-10T09:37:05.125Z,9788.00
2018-05-10T09:38:05.316Z,9816.00
2018-05-10T09:39:05.501Z,9988.00
2018-05-10T09:40:05.685Z,10456.00
2018-05-10T09:41:05.911Z,10700.00
2018-05-10T09:42:06.367Z,10352.00
2018-05-10T09:43:06.241Z,9800.00
2018-05-10T09:44:06.406Z,10128.00
2018-05-10T09:45:06.631Z,10188.00
2018-05-10T09:46:06.825Z,10252.00
2018-05-10T09:47:06.924Z,10340.00
2018-05-10T09:48:07.114Z,10224.00
2018-05-10T09:49:07.300Z,10112.00
2018-05-10T09:50:07.506Z,10220.00
2018-05-10T09:51:07.679Z,10076.00
2018-05-10T09:52:07.881Z,10132.00
2018-05-10T09:53:08.063Z,10560.00
2018-05-10T09:54:08.230Z,11180.00
2018-05-10T09:55:08.473Z,11192.00
2018-05-10T09:56:08.621Z,11016.00
2018-05-10T09:57:08.810Z,9868.00
2018-05-10T09:58:08.978Z,10816.00
2018-05-10T09:59:09.170Z,6416.00
2018-05-10T10:00:09.351Z,5452.00
2018-05-10T10:01:09.584Z,5692.00
2018-05-10T10:02:09.755Z,5256.00
2018-05-10T10:03:09.927Z,5896.00
2018-05-10T10:04:10.103Z,10724.00
2018-05-10T10:05:10.272Z,10248.00
2018-05-10T10:06:10.594Z,10300.00
2018-05-10T10:07:10.635Z,5368.00
2018-05-10T10:08:10.857Z,10080.00
2018-05-10T10:09:11.009Z,9324.00
2018-05-10T10:10:11.196Z,8648.00
2018-05-10T10:11:11.414Z,8592.00
2018-05-10T10:12:11.585Z,8612.00
2018-05-10T10:13:11.740Z,8656.00
2018-05-10T10:14:11.932Z,8596.00
2018-05-10T10:15:12.121Z,8544.00
2018-05-10T10:16:12.302Z,8528.00
2018-05-10T10:17:12.522Z,8488.00
2018-05-10T10:18:12.688Z,8400.00
2018-05-10T10:19:12.947Z,8312.00
2018-05-10T10:20:13.054Z,8236.00
2018-05-10T10:21:13.274Z,8132.00
2018-05-10T10:22:13.421Z,7944.00
2018-05-10T10:24:13.801Z,7784.00
2018-05-10T10:25:14.015Z,7728.00
2018-05-10T10:26:14.167Z,7660.00
2018-05-10T10:27:14.358Z,7596.00
2018-05-10T10:28:14.583Z,7580.00
2018-05-10T10:29:14.753Z,7572.00
2018-05-10T10:30:14.933Z,7540.00
2018-05-10T10:31:15.131Z,7404.00
2018-05-10T10:32:15.308Z,7412.00
2018-05-10T10:33:15.465Z,7308.00
2018-05-10T10:34:15.649Z,7276.00
2018-05-10T10:35:15.801Z,7260.00
2018-05-10T10:36:15.979Z,7228.00
2018-05-10T10:37:16.182Z,7220.00
2018-05-10T10:38:16.491Z,7188.00
2018-05-10T10:39:16.531Z,7108.00
2018-05-10T10:40:16.847Z,7120.00
2018-05-10T10:41:16.916Z,7192.00
2018-05-10T10:42:17.080Z,7232.00
2018-05-10T10:43:17.309Z,7240.00
2018-05-10T10:44:17.453Z,5392.00
2018-05-10T10:45:17.624Z,4740.00
2018-05-10T10:46:17.828Z,4724.00
2018-05-10T10:47:17.989Z,5304.00
2018-05-10T10:48:18.174Z,4944.00
2018-05-10T10:49:18.916Z,5204.00
2018-05-10T10:50:18.529Z,4864.00
2018-05-10T10:51:18.692Z,4788.00
2018-05-10T10:52:18.885Z,4856.00
2018-05-10T10:53:19.068Z,5572.00
2018-05-10T10:54:19.263Z,5288.00
2018-05-10T10:55:19.484Z,5824.00
2018-05-10T10:56:19.620Z,7048.00
2018-05-10T10:57:19.821Z,7988.00
2018-05-10T10:58:19.982Z,6916.00
2018-05-10T10:59:20.153Z,6428.00
2018-05-10T11:00:20.347Z,6216.00
2018-05-10T11:01:20.552Z,6136.00
2018-05-10T11:02:20.704Z,5964.00
2018-05-10T11:03:20.883Z,5856.00
2018-05-10T11:04:21.189Z,5984.00
2018-05-10T11:05:21.299Z,6348.00
2018-05-10T11:06:21.465Z,7072.00
2018-05-10T11:07:21.677Z,8508.00
2018-05-10T11:08:21.837Z,8576.00
2018-05-10T11:09:22.036Z,8464.00
2018-05-10T11:10:22.247Z,8132.00
2018-05-10T11:11:22.403Z,6352.00
2018-05-10T11:12:22.581Z,5844.00
2018-05-10T11:13:22.772Z,5616.00
2018-05-10T11:14:22.960Z,5560.00
2018-05-10T11:15:23.173Z,6308.00
2018-05-10T11:16:23.358Z,5832.00
2018-05-10T11:17:23.529Z,6312.00
2018-05-10T11:18:23.686Z,6392.00
2018-05-10T11:19:23.857Z,6600.00
2018-05-10T11:20:24.040Z,7356.00
2018-05-10T11:21:24.218Z,8132.00
2018-05-10T11:22:24.443Z,8504.00
2018-05-10T11:23:24.572Z,8840.00
2018-05-10T11:24:24.739Z,8924.00
2018-05-10T11:25:24.931Z,9044.00
2018-05-10T11:26:25.120Z,9120.00
2018-05-10T11:27:25.476Z,9140.00
2018-05-10T11:28:25.789Z,9044.00
2018-05-10T11:29:25.733Z,8956.00
2018-05-10T11:30:25.868Z,8912.00
2018-05-10T11:31:26.075Z,8824.00
2018-05-10T11:32:26.210Z,8904.00
2018-05-10T11:33:26.386Z,8896.00
2018-05-10T11:34:26.581Z,8832.00
2018-05-10T11:35:26.795Z,8804.00
2018-05-10T11:36:26.944Z,8740.00
2018-05-10T11:37:27.152Z,8684.00
2018-05-10T11:38:27.346Z,8564.00
2018-05-10T11:39:27.557Z,8452.00
2018-05-10T11:40:27.689Z,8392.00
2018-05-10T11:41:27.900Z,8404.00
2018-05-10T11:42:28.071Z,8316.00
2018-05-10T11:43:28.254Z,7300.00
2018-05-10T11:44:28.468Z,8092.00
2018-05-10T11:45:28.620Z,8080.00
2018-05-10T11:46:28.830Z,8104.00
2018-05-10T11:47:28.962Z,8152.00
2018-05-10T11:48:29.152Z,8208.00
2018-05-10T11:49:29.329Z,8276.00
2018-05-10T11:50:29.510Z,8324.00
2018-05-10T11:51:29.681Z,8328.00
2018-05-10T11:52:29.905Z,8420.00
2018-05-10T11:53:30.072Z,8548.00
2018-05-10T11:54:30.222Z,8556.00
2018-05-10T11:55:30.410Z,8488.00
2018-05-10T11:56:30.623Z,8364.00
2018-05-10T11:57:30.801Z,8212.00
2018-05-10T11:58:30.948Z,8076.00
2018-05-10T11:59:31.113Z,7912.00
2018-05-10T12:00:31.294Z,6184.00
2018-05-10T12:01:31.466Z,6116.00
2018-05-10T12:02:31.738Z,7492.00
2018-05-10T12:03:31.824Z,6752.00
2018-05-10T12:04:32.015Z,7736.00
2018-05-10T12:05:32.184Z,8332.00
2018-05-10T12:06:32.415Z,8244.00
2018-05-10T12:07:32.566Z,6880.00
2018-05-10T12:08:32.775Z,6572.00
2018-05-10T12:09:32.906Z,6340.00
2018-05-10T12:10:33.134Z,6128.00
2018-05-10T12:11:33.298Z,5908.00
2018-05-10T12:12:33.519Z,5656.00
2018-05-10T12:13:33.742Z,5404.00
2018-05-10T12:14:33.842Z,5164.00
2018-05-10T12:15:34.028Z,4984.00
2018-05-10T12:16:34.233Z,4716.00
2018-05-10T12:17:34.423Z,4328.00
2018-05-10T12:18:34.592Z,4004.00
2018-05-10T12:19:34.762Z,3760.00
2018-05-10T12:20:34.988Z,3560.00
2018-05-10T12:21:35.156Z,3376.00
2018-05-10T12:22:35.466Z,3208.00
2018-05-10T12:23:35.579Z,3088.00
2018-05-10T12:24:35.702Z,2968.00
2018-05-10T12:25:35.983Z,2920.00
2018-05-10T12:26:36.118Z,2912.00
2018-05-10T12:27:36.327Z,3012.00
2018-05-10T12:28:36.497Z,2724.00
2018-05-10T12:29:36.668Z,2316.00